logo dgac
Viernes 20 de Julio del 2018
Buscar por aerodromo o helipuerto
Ingrese nombre de aeródromo, localidad o designador OACI:
METAR del 20-07-2018 a las 14:00 UTC
METAR SCRM 201400Z 33026KT 1500 BR OVC015 M00/M01 Q1004
Viento: dirección 330 grados, velocidad 26 nudos
Visibilidad: 1500 metros
Neblina
Nubes: Cubierto a 1500 pies sobre el nivel del aeródromo
Temperatura: 0 °C
Rocío: -1 °C
Humedad_relativa: 93%
Presión: 1004 hPa
METAR del 20-07-2018 a las 13:00 UTC
METAR SCRM 201300Z 33026KT 1500 BR OVC010 M00/M01 Q1004
Viento: dirección 330 grados, velocidad 26 nudos
Visibilidad: 1500 metros
Neblina
Nubes: Cubierto a 1000 pies sobre el nivel del aeródromo
Temperatura: 0 °C
Rocío: -1 °C
Humedad_relativa: 93%
Presión: 1004 hPa
SPECI del 20-07-2018 a las 12:25 UTC
SPECI SCRM 201225Z 33027KT 0900 FG OVC010 M00/M01 Q1004
Viento: dirección 330 grados, velocidad 27 nudos
Visibilidad: 900 metros
Niebla
Nubes: Cubierto a 1000 pies sobre el nivel del aeródromo
Temperatura: 0 °C
Rocío: -1 °C
Humedad_relativa: 93%
Presión: 1004 hPa
METAR del 20-07-2018 a las 12:00 UTC
METAR SCRM 201200Z 33025KT 9999 BKN010 BKN020 M00/M01 Q1004
Viento: dirección 330 grados, velocidad 25 nudos
Visibilidad: 10 km o más
Nubes: Nublado a 1000 pies sobre el nivel del aeródromo
Nubes: Nublado a 2000 pies sobre el nivel del aeródromo
Temperatura: 0 °C
Rocío: -1 °C
Humedad_relativa: 93%
Presión: 1004 hPa
METAR del 20-07-2018 a las 12:00 UTC
METAR SCRM 201200Z 33025KT 9999 BKN010 BKN020 M00/M01 Q1004
Viento: dirección 330 grados, velocidad 25 nudos
Visibilidad: 10 km o más
Nubes: Nublado a 1000 pies sobre el nivel del aeródromo
Nubes: Nublado a 2000 pies sobre el nivel del aeródromo
Temperatura: 0 °C
Rocío: -1 °C
Humedad_relativa: 93%
Presión: 1004 hPa
METAR del 20-07-2018 a las 11:00 UTC
METAR SCRM 201100Z 33025KT 9999 BKN008 BKN020 M00/M01 Q1004
Viento: dirección 330 grados, velocidad 25 nudos
Visibilidad: 10 km o más
Nubes: Nublado a 800 pies sobre el nivel del aeródromo
Nubes: Nublado a 2000 pies sobre el nivel del aeródromo
Temperatura: 0 °C
Rocío: -1 °C
Humedad_relativa: 93%
Presión: 1004 hPa
METAR del 20-07-2018 a las 10:00 UTC
METAR SCRM 201000Z 33027KT 6000 SCT006 BKN010 M00/M01 Q1004
Viento: dirección 330 grados, velocidad 27 nudos
Visibilidad: 6000 metros
Nubes: Nubosidad parcial a 600 pies sobre el nivel del aeródromo
Nubes: Nublado a 1000 pies sobre el nivel del aeródromo
Temperatura: 0 °C
Rocío: -1 °C
Humedad_relativa: 93%
Presión: 1004 hPa
METAR del 20-07-2018 a las 09:00 UTC
METAR SCRM 200900Z 34030KT 6000 SCT006 SCT010 M01/M01 Q1005
Viento: dirección 340 grados, velocidad 30 nudos
Visibilidad: 6000 metros
Nubes: Nubosidad parcial a 600 pies sobre el nivel del aeródromo
Nubes: Nubosidad parcial a 1000 pies sobre el nivel del aeródromo
Temperatura: -1 °C
Rocío: -1 °C
Humedad_relativa: 100%
Presión: 1005 hPa
METAR del 20-07-2018 a las 08:00 UTC
METAR SCRM 200800Z 34032KT 8000 BKN006 BKN010 M01/M01 Q1005
Viento: dirección 340 grados, velocidad 32 nudos
Visibilidad: 8000 metros
Nubes: Nublado a 600 pies sobre el nivel del aeródromo
Nubes: Nublado a 1000 pies sobre el nivel del aeródromo
Temperatura: -1 °C
Rocío: -1 °C
Humedad_relativa: 100%
Presión: 1005 hPa
METAR del 20-07-2018 a las 07:00 UTC
METAR SCRM 200700Z 33031KT 8000 SCT005 BKN010 M01/M01 Q1005
Viento: dirección 330 grados, velocidad 31 nudos
Visibilidad: 8000 metros
Nubes: Nubosidad parcial a 500 pies sobre el nivel del aeródromo
Nubes: Nublado a 1000 pies sobre el nivel del aeródromo
Temperatura: -1 °C
Rocío: -1 °C
Humedad_relativa: 100%
Presión: 1005 hPa